createdAt,value
2022-08-26T00:00:59.048Z,67.51
2022-08-26T00:03:25.706Z,67.50
2022-08-26T00:05:52.388Z,67.89
2022-08-26T00:08:20.307Z,68.32
2022-08-26T00:10:47.022Z,68.38
2022-08-26T00:13:13.570Z,68.25
2022-08-26T00:15:40.610Z,68.50
2022-08-26T00:18:21.856Z,68.64
2022-08-26T00:20:48.990Z,68.86
2022-08-26T00:23:15.484Z,68.93
2022-08-26T00:25:42.714Z,69.18
2022-08-26T00:28:10.790Z,69.30
2022-08-26T00:30:37.656Z,69.77
2022-08-26T00:33:05.525Z,69.86
2022-08-26T00:35:32.844Z,70.21
2022-08-26T00:38:01.290Z,70.57
2022-08-26T00:40:34.172Z,70.02
2022-08-26T00:43:02.189Z,70.08
2022-08-26T00:45:40.299Z,70.43
2022-08-26T00:48:08.357Z,70.86
2022-08-26T00:50:40.052Z,71.13
2022-08-26T00:53:21.534Z,71.52
2022-08-26T00:55:58.009Z,71.48
2022-08-26T00:58:25.315Z,71.79
2022-08-26T01:00:52.762Z,72.21
2022-08-26T01:03:23.139Z,72.19
2022-08-26T01:05:54.514Z,72.56
2022-08-26T01:08:22.365Z,72.77
2022-08-26T01:10:51.382Z,73.20
2022-08-26T01:13:21.609Z,73.24
2022-08-26T01:15:51.191Z,72.96
2022-08-26T01:18:18.046Z,73.47
2022-08-26T01:21:02.112Z,73.40
2022-08-26T01:23:32.576Z,73.45
2022-08-26T01:26:04.946Z,73.39
2022-08-26T01:28:32.716Z,73.41
2022-08-26T01:31:03.595Z,73.64
2022-08-26T01:33:42.516Z,73.47
2022-08-26T01:36:09.961Z,73.64
2022-08-26T01:38:36.378Z,73.46
2022-08-26T01:41:03.274Z,73.66
2022-08-26T01:43:47.087Z,73.87
2022-08-26T01:46:15.944Z,74.15
2022-08-26T01:48:43.873Z,74.27
2022-08-26T01:51:11.649Z,74.46
2022-08-26T01:53:38.858Z,74.47
2022-08-26T01:56:09.054Z,74.72
2022-08-26T01:59:01.466Z,74.91
2022-08-26T02:01:28.919Z,75.43
2022-08-26T02:04:03.893Z,75.31
2022-08-26T02:06:30.422Z,75.52
2022-08-26T02:09:00.198Z,75.67
2022-08-26T02:11:27.402Z,75.92
2022-08-26T02:14:05.921Z,75.99
2022-08-26T02:19:04.530Z,76.04
2022-08-26T02:21:33.567Z,76.35
2022-08-26T02:24:11.570Z,76.56
2022-08-26T02:26:39.085Z,76.42
2022-08-26T02:29:11.613Z,76.72
2022-08-26T02:31:38.164Z,77.04
2022-08-26T02:34:10.732Z,77.09
2022-08-26T02:36:38.158Z,77.08
2022-08-26T02:39:06.505Z,77.38
2022-08-26T02:41:33.812Z,77.61
2022-08-26T02:44:00.462Z,77.63
2022-08-26T02:46:29.781Z,77.80
2022-08-26T02:48:57.028Z,77.70
2022-08-26T02:51:24.530Z,77.75
2022-08-26T02:53:50.981Z,78.02
2022-08-26T02:56:17.589Z,78.15
2022-08-26T02:58:44.099Z,78.27
2022-08-26T03:01:24.926Z,78.56
2022-08-26T03:03:51.755Z,78.20
2022-08-26T03:06:18.252Z,78.31
2022-08-26T03:08:45.051Z,78.33
2022-08-26T03:11:11.636Z,77.85
2022-08-26T03:13:38.950Z,77.71
2022-08-26T03:16:05.741Z,77.85
2022-08-26T03:18:32.698Z,78.28
2022-08-26T03:21:05.002Z,78.47
2022-08-26T03:23:31.781Z,78.51
2022-08-26T03:25:58.929Z,78.61
2022-08-26T03:28:27.234Z,78.90
2022-08-26T03:30:53.988Z,78.92
2022-08-26T03:33:20.674Z,79.19
2022-08-26T03:35:50.767Z,79.58
2022-08-26T03:38:17.354Z,80.17
2022-08-26T03:40:43.852Z,80.39
2022-08-26T03:43:11.723Z,80.61
2022-08-26T03:45:38.793Z,80.52
2022-08-26T03:48:06.657Z,80.61
2022-08-26T03:50:34.391Z,80.51
2022-08-26T03:53:02.850Z,80.88
2022-08-26T03:55:33.217Z,81.48
2022-08-26T03:58:00.671Z,81.87
2022-08-26T04:00:27.218Z,82.17
2022-08-26T04:02:53.829Z,82.18
2022-08-26T04:05:21.696Z,82.09
2022-08-26T04:07:49.293Z,82.13
2022-08-26T04:10:20.347Z,81.80
2022-08-26T04:12:46.995Z,82.20
2022-08-26T04:15:15.558Z,81.94
2022-08-26T04:17:42.447Z,81.65
2022-08-26T04:20:09.687Z,80.92
2022-08-26T04:22:36.128Z,81.21
2022-08-26T04:25:02.645Z,80.85
2022-08-26T04:27:29.072Z,80.85
2022-08-26T04:29:55.553Z,81.73
2022-08-26T04:32:22.508Z,82.17
2022-08-26T04:34:48.957Z,82.83
2022-08-26T04:37:16.323Z,82.74
2022-08-26T04:39:43.888Z,82.80
2022-08-26T04:42:10.839Z,82.90
2022-08-26T04:44:37.690Z,83.27
2022-08-26T04:47:04.710Z,83.40
2022-08-26T04:49:35.266Z,83.32
2022-08-26T04:52:02.551Z,83.70
2022-08-26T04:54:29.012Z,83.91
2022-08-26T04:56:55.745Z,83.99
2022-08-26T04:59:22.600Z,83.70
2022-08-26T05:01:52.492Z,83.60
2022-08-26T05:04:20.110Z,84.11
2022-08-26T05:06:49.672Z,84.10
2022-08-26T05:09:18.329Z,84.18
2022-08-26T05:11:48.516Z,84.55
2022-08-26T05:14:19.696Z,84.67
2022-08-26T05:16:47.734Z,84.76
2022-08-26T05:19:14.521Z,84.98
2022-08-26T05:21:45.252Z,84.71
2022-08-26T05:24:13.758Z,84.92
2022-08-26T05:26:40.206Z,84.97
2022-08-26T05:29:06.656Z,84.84
2022-08-26T05:31:34.647Z,85.08
2022-08-26T05:34:03.611Z,85.02
2022-08-26T05:36:32.832Z,85.31
2022-08-26T05:39:00.397Z,85.08
2022-08-26T05:41:36.401Z,85.03
2022-08-26T05:44:07.825Z,84.94
2022-08-26T05:46:36.534Z,85.06
2022-08-26T05:49:04.685Z,85.16
2022-08-26T05:51:32.333Z,84.72
2022-08-26T05:54:01.779Z,84.77
2022-08-26T05:56:30.038Z,84.95
2022-08-26T05:58:58.388Z,84.94
2022-08-26T06:01:27.625Z,84.60
2022-08-26T06:03:57.519Z,85.14
2022-08-26T06:06:29.261Z,85.01
2022-08-26T06:08:59.058Z,85.02
2022-08-26T06:11:27.109Z,85.20
2022-08-26T06:13:54.977Z,85.41
2022-08-26T06:16:24.436Z,85.24
2022-08-26T06:18:52.349Z,85.39
2022-08-26T06:21:32.970Z,85.20
2022-08-26T06:24:27.169Z,84.83
2022-08-26T06:26:56.723Z,84.68
2022-08-26T06:29:25.384Z,84.53
2022-08-26T06:31:53.413Z,84.53
2022-08-26T06:34:20.173Z,84.23
2022-08-26T06:36:47.297Z,84.08
2022-08-26T06:39:15.644Z,84.04
2022-08-26T06:41:44.899Z,83.67
2022-08-26T06:44:12.670Z,83.31
2022-08-26T06:46:39.787Z,83.00
2022-08-26T06:49:06.368Z,83.05
2022-08-26T06:51:36.158Z,82.96
2022-08-26T06:54:04.493Z,82.42
2022-08-26T06:56:39.444Z,82.24
2022-08-26T06:59:07.696Z,81.91
2022-08-26T07:01:37.146Z,81.54
2022-08-26T07:04:10.515Z,81.14
2022-08-26T07:06:40.218Z,81.14
2022-08-26T07:09:09.939Z,80.70
2022-08-26T07:11:37.903Z,80.26
2022-08-26T07:14:04.990Z,80.13
2022-08-26T07:16:31.675Z,79.67
2022-08-26T07:18:59.566Z,79.29
2022-08-26T07:21:28.057Z,79.21
2022-08-26T07:23:58.710Z,79.08
2022-08-26T07:26:30.363Z,78.54
2022-08-26T07:28:57.914Z,78.50
2022-08-26T07:31:27.778Z,77.91
2022-08-26T07:33:54.888Z,77.61
2022-08-26T07:36:21.908Z,77.06
2022-08-26T07:38:48.556Z,76.91
2022-08-26T07:41:16.967Z,76.80
2022-08-26T07:43:43.781Z,76.23
2022-08-26T07:46:15.840Z,76.18
2022-08-26T07:48:46.136Z,76.61
2022-08-26T07:51:14.904Z,76.05
2022-08-26T07:53:42.479Z,75.87
2022-08-26T07:56:08.974Z,75.39
2022-08-26T07:58:37.968Z,75.58
2022-08-26T08:01:04.800Z,74.54
2022-08-26T08:03:34.207Z,75.02
2022-08-26T08:06:00.634Z,74.81
2022-08-26T08:08:29.317Z,73.89
2022-08-26T08:10:56.684Z,73.34
2022-08-26T08:13:23.518Z,73.09
2022-08-26T08:15:50.429Z,72.94
2022-08-26T08:18:17.639Z,72.49
2022-08-26T08:21:04.870Z,71.91
2022-08-26T08:23:32.134Z,71.95
2022-08-26T08:26:06.781Z,71.59
2022-08-26T08:28:35.288Z,71.16
2022-08-26T08:31:02.174Z,71.53
2022-08-26T08:33:32.779Z,70.79
2022-08-26T08:36:00.365Z,70.50
2022-08-26T08:38:27.229Z,70.92
2022-08-26T08:40:53.970Z,70.37
2022-08-26T08:43:31.994Z,69.98
2022-08-26T08:46:08.413Z,70.07
2022-08-26T08:48:40.038Z,69.61
2022-08-26T08:51:18.829Z,69.41
2022-08-26T08:53:47.273Z,69.39
2022-08-26T08:56:25.697Z,69.22
2022-08-26T08:59:15.251Z,69.24
2022-08-26T09:02:10.938Z,69.42
2022-08-26T09:04:49.624Z,69.42
2022-08-26T09:07:22.734Z,68.60
2022-08-26T09:10:00.142Z,68.94
2022-08-26T09:12:32.235Z,68.33
2022-08-26T09:15:33.148Z,67.60
2022-08-26T09:18:15.141Z,67.34
2022-08-26T09:20:59.037Z,67.45
2022-08-26T09:23:26.184Z,66.95
2022-08-26T09:26:01.548Z,66.46
2022-08-26T09:28:29.722Z,65.90
2022-08-26T09:31:08.000Z,65.98
2022-08-26T09:33:37.356Z,65.28
2022-08-26T09:36:16.195Z,65.05
2022-08-26T09:38:43.617Z,64.72
2022-08-26T09:41:32.670Z,64.57
2022-08-26T09:44:15.675Z,64.20
2022-08-26T09:46:55.589Z,63.97
2022-08-26T09:49:36.070Z,64.08
2022-08-26T09:52:21.933Z,63.71
2022-08-26T09:55:21.036Z,63.37
2022-08-26T09:57:52.593Z,63.11
2022-08-26T10:00:38.524Z,62.94
2022-08-26T10:03:17.338Z,62.76
2022-08-26T10:05:47.625Z,63.08
2022-08-26T10:08:31.065Z,62.77
2022-08-26T10:11:00.023Z,61.92
2022-08-26T10:13:37.906Z,62.29
2022-08-26T10:16:13.356Z,62.33
2022-08-26T10:18:46.361Z,61.49
2022-08-26T10:21:20.457Z,61.73
2022-08-26T10:23:51.361Z,61.40
2022-08-26T10:26:57.574Z,61.26
2022-08-26T10:29:34.210Z,61.03
2022-08-26T10:32:35.248Z,60.38
2022-08-26T10:35:10.227Z,60.45
2022-08-26T10:37:40.307Z,60.27
2022-08-26T10:40:25.671Z,60.56
2022-08-26T10:43:11.256Z,59.83
2022-08-26T10:45:43.800Z,59.25
2022-08-26T10:48:13.961Z,58.23
2022-08-26T10:50:47.361Z,57.77
2022-08-26T10:53:24.949Z,57.41
2022-08-26T10:56:01.397Z,57.35
2022-08-26T10:58:53.766Z,56.38
2022-08-26T11:01:43.176Z,56.36
2022-08-26T11:04:18.816Z,55.30
2022-08-26T11:06:49.054Z,53.87
2022-08-26T11:09:45.703Z,53.97
2022-08-26T11:12:37.325Z,53.21
2022-08-26T11:15:09.481Z,53.29
2022-08-26T11:17:45.066Z,52.85
2022-08-26T11:20:33.684Z,52.61
2022-08-26T11:23:12.230Z,53.05
2022-08-26T11:25:57.328Z,52.99
2022-08-26T11:28:44.667Z,52.43
2022-08-26T11:31:20.990Z,52.53
2022-08-26T11:33:59.119Z,52.26
2022-08-26T11:36:45.378Z,51.80
2022-08-26T11:39:24.181Z,51.94
2022-08-26T11:41:53.812Z,51.13
2022-08-26T11:44:23.024Z,50.54
2022-08-26T11:46:59.925Z,49.13
2022-08-26T11:49:31.729Z,48.96
2022-08-26T11:52:13.893Z,48.69
2022-08-26T11:54:40.477Z,48.10
2022-08-26T11:57:11.982Z,47.96
2022-08-26T11:59:40.169Z,47.80
2022-08-26T12:02:14.996Z,47.55
2022-08-26T12:04:44.515Z,47.55
2022-08-26T12:07:11.621Z,47.58
2022-08-26T12:09:54.854Z,47.06
2022-08-26T12:12:34.658Z,46.26
2022-08-26T12:15:29.684Z,44.71
2022-08-26T12:17:56.272Z,43.02
2022-08-26T12:20:48.334Z,43.74
2022-08-26T12:23:41.878Z,44.02
2022-08-26T12:26:12.603Z,47.04
2022-08-26T12:28:43.714Z,47.66
2022-08-26T12:31:10.188Z,47.42
2022-08-26T12:33:36.716Z,47.95
2022-08-26T12:36:05.093Z,47.79
2022-08-26T12:38:32.298Z,47.37
2022-08-26T12:40:58.729Z,46.14
2022-08-26T12:43:45.308Z,47.82
2022-08-26T12:46:26.272Z,47.78
2022-08-26T12:48:52.791Z,48.21
2022-08-26T12:51:26.114Z,47.72
2022-08-26T12:53:52.945Z,47.67
2022-08-26T12:56:30.008Z,48.47
2022-08-26T12:59:26.926Z,46.76
2022-08-26T13:01:54.010Z,47.28
2022-08-26T13:04:42.460Z,47.18
2022-08-26T13:07:18.080Z,46.93
2022-08-26T13:09:44.591Z,46.95
2022-08-26T13:12:11.593Z,47.48
2022-08-26T13:14:38.126Z,47.42
2022-08-26T13:17:04.549Z,47.29
2022-08-26T13:19:31.284Z,47.35
2022-08-26T13:21:59.997Z,46.99
2022-08-26T13:24:31.501Z,47.02
2022-08-26T13:26:57.945Z,46.50
2022-08-26T13:29:24.448Z,46.79
2022-08-26T13:31:51.336Z,47.15
2022-08-26T13:34:20.627Z,47.51
2022-08-26T13:36:48.101Z,47.87
2022-08-26T13:39:14.583Z,47.75
2022-08-26T13:41:41.121Z,47.91
2022-08-26T13:44:08.026Z,47.91
2022-08-26T13:46:34.579Z,48.39
2022-08-26T13:49:01.126Z,48.61
2022-08-26T13:51:28.099Z,49.08
2022-08-26T13:53:54.658Z,49.44
2022-08-26T13:56:22.456Z,49.77
2022-08-26T13:58:50.173Z,50.08
2022-08-26T14:01:17.485Z,50.24
2022-08-26T14:03:44.075Z,50.90
2022-08-26T14:06:10.715Z,51.03
2022-08-26T14:08:38.374Z,51.08
2022-08-26T14:11:04.926Z,51.21
2022-08-26T14:13:31.438Z,51.14
2022-08-26T14:15:59.619Z,50.70
2022-08-26T14:18:33.321Z,51.05
2022-08-26T14:21:00.051Z,50.81
2022-08-26T14:23:27.470Z,50.70
2022-08-26T14:25:54.309Z,50.75
2022-08-26T14:28:20.785Z,51.07
2022-08-26T14:30:53.465Z,51.09
2022-08-26T14:33:24.940Z,51.06
2022-08-26T14:35:51.543Z,51.21
2022-08-26T14:38:18.125Z,51.33
2022-08-26T14:40:45.147Z,51.13
2022-08-26T14:43:13.820Z,51.04
2022-08-26T14:48:14.069Z,50.87
2022-08-26T14:50:40.525Z,51.07
2022-08-26T14:53:25.682Z,51.06
2022-08-26T14:55:52.639Z,51.34
2022-08-26T14:58:19.074Z,52.41
2022-08-26T15:00:45.512Z,52.31
2022-08-26T15:03:12.107Z,52.27
2022-08-26T15:05:39.810Z,52.27
2022-08-26T15:08:10.345Z,50.25
2022-08-26T15:10:37.307Z,49.69
2022-08-26T15:13:03.889Z,47.46
2022-08-26T15:15:30.381Z,47.63
2022-08-26T15:17:58.187Z,48.07
2022-08-26T15:20:25.675Z,49.06
2022-08-26T15:22:52.199Z,48.73
2022-08-26T15:25:19.811Z,49.04
2022-08-26T15:27:46.244Z,49.37
2022-08-26T15:30:13.081Z,50.70
2022-08-26T15:32:39.522Z,50.32
2022-08-26T15:35:09.067Z,50.29
2022-08-26T15:37:36.382Z,49.99
2022-08-26T15:40:03.742Z,49.20
2022-08-26T15:42:30.296Z,49.04
2022-08-26T15:44:56.768Z,47.93
2022-08-26T15:47:23.726Z,45.26
2022-08-26T15:49:50.153Z,45.09
2022-08-26T15:52:16.740Z,44.80
2022-08-26T15:54:43.176Z,44.12
2022-08-26T15:57:12.327Z,44.39
2022-08-26T15:59:40.172Z,43.98
2022-08-26T16:02:07.327Z,42.46
2022-08-26T16:04:33.840Z,43.29
2022-08-26T16:07:00.519Z,43.63
2022-08-26T16:09:27.761Z,43.71
2022-08-26T16:11:56.594Z,42.89
2022-08-26T16:14:23.408Z,44.00
2022-08-26T16:16:50.477Z,43.05
2022-08-26T16:19:17.209Z,42.45
2022-08-26T16:21:44.007Z,43.28
2022-08-26T16:24:11.475Z,43.56
2022-08-26T16:26:38.807Z,43.84
2022-08-26T16:29:08.592Z,43.87
2022-08-26T16:31:35.600Z,44.43
2022-08-26T16:34:02.105Z,44.38
2022-08-26T16:36:28.579Z,45.12
2022-08-26T16:38:56.319Z,45.71
2022-08-26T16:41:24.151Z,45.66
2022-08-26T16:43:50.610Z,46.29
2022-08-26T16:46:17.162Z,46.13
2022-08-26T16:48:44.098Z,45.87
2022-08-26T16:51:19.005Z,46.00
2022-08-26T16:53:46.090Z,46.69
2022-08-26T16:56:18.319Z,47.20
2022-08-26T16:58:45.489Z,47.21
2022-08-26T17:01:11.967Z,47.63
2022-08-26T17:03:38.498Z,48.23
2022-08-26T17:06:05.033Z,49.09
2022-08-26T17:08:31.873Z,49.63
2022-08-26T17:11:01.588Z,49.89
2022-08-26T17:13:35.758Z,50.29
2022-08-26T17:16:04.774Z,50.53
2022-08-26T17:18:31.468Z,51.08
2022-08-26T17:21:02.020Z,51.23
2022-08-26T17:23:28.493Z,51.27
2022-08-26T17:25:54.951Z,51.51
2022-08-26T17:28:21.414Z,51.68
2022-08-26T17:30:47.940Z,51.67
2022-08-26T17:33:14.433Z,51.34
2022-08-26T17:35:43.628Z,51.78
2022-08-26T17:38:10.273Z,52.10
2022-08-26T17:40:36.954Z,52.71
2022-08-26T17:43:03.510Z,53.35
2022-08-26T17:45:29.960Z,53.70
2022-08-26T17:47:56.895Z,54.23
2022-08-26T17:50:23.927Z,55.27
2022-08-26T17:52:50.381Z,55.37
2022-08-26T17:55:18.449Z,55.46
2022-08-26T17:57:53.142Z,55.52
2022-08-26T18:00:22.090Z,55.99
2022-08-26T18:02:48.517Z,55.98
2022-08-26T18:05:17.396Z,56.12
2022-08-26T18:07:44.751Z,56.63
2022-08-26T18:10:13.780Z,56.77
2022-08-26T18:12:41.542Z,56.54
2022-08-26T18:15:10.121Z,56.97
2022-08-26T18:17:38.991Z,56.93
2022-08-26T18:20:08.967Z,57.40
2022-08-26T18:22:35.406Z,57.01
2022-08-26T18:25:01.914Z,57.46
2022-08-26T18:27:28.352Z,57.59
2022-08-26T18:29:55.411Z,57.73
2022-08-26T18:32:21.894Z,57.75
2022-08-26T18:34:48.436Z,57.81
2022-08-26T18:37:15.029Z,58.11
2022-08-26T18:39:41.725Z,58.12
2022-08-26T18:42:08.791Z,58.46
2022-08-26T18:44:35.386Z,58.30
2022-08-26T18:47:01.970Z,58.46
2022-08-26T18:49:28.810Z,58.82
2022-08-26T18:51:55.314Z,58.76
2022-08-26T18:54:22.259Z,59.13
2022-08-26T18:56:48.801Z,58.99
2022-08-26T18:59:15.379Z,58.93
2022-08-26T19:01:42.250Z,58.94
2022-08-26T19:04:15.387Z,59.10
2022-08-26T19:06:43.016Z,59.36
2022-08-26T19:09:10.835Z,59.43
2022-08-26T19:11:42.866Z,59.37
2022-08-26T19:14:12.992Z,59.57
2022-08-26T19:16:41.428Z,59.37
2022-08-26T19:19:07.918Z,59.86
2022-08-26T19:21:35.674Z,60.96
2022-08-26T19:24:04.728Z,61.03
2022-08-26T19:26:31.799Z,61.76
2022-08-26T19:28:59.083Z,62.36
2022-08-26T19:31:26.122Z,64.60
2022-08-26T19:33:52.642Z,64.57
2022-08-26T19:36:23.444Z,64.90
2022-08-26T19:38:50.182Z,66.25
2022-08-26T19:41:24.563Z,67.18
2022-08-26T19:43:54.679Z,67.68
2022-08-26T19:46:26.438Z,68.00
2022-08-26T19:48:55.693Z,69.00
2022-08-26T19:51:28.579Z,69.51
2022-08-26T19:53:56.619Z,70.23
2022-08-26T19:56:23.497Z,71.16
2022-08-26T19:58:50.212Z,71.89
2022-08-26T20:01:17.755Z,72.12
2022-08-26T20:03:44.719Z,72.41
2022-08-26T20:06:12.947Z,72.14
2022-08-26T20:08:40.733Z,72.34
2022-08-26T20:11:11.907Z,73.04
2022-08-26T20:13:39.066Z,73.44
2022-08-26T20:16:05.724Z,74.04
2022-08-26T20:18:50.866Z,74.25
2022-08-26T20:21:26.180Z,74.50
2022-08-26T20:24:03.332Z,75.14
2022-08-26T20:26:31.913Z,75.84
2022-08-26T20:28:58.522Z,77.48
2022-08-26T20:31:25.724Z,78.27
2022-08-26T20:33:52.488Z,78.73
2022-08-26T20:36:20.814Z,79.11
2022-08-26T20:38:48.009Z,79.49
2022-08-26T20:41:14.604Z,79.90
2022-08-26T20:43:42.742Z,80.25
2022-08-26T20:46:18.003Z,80.92
2022-08-26T20:48:47.740Z,81.38
2022-08-26T20:51:14.940Z,81.82
2022-08-26T20:53:41.566Z,82.07
2022-08-26T20:56:09.194Z,81.99
2022-08-26T20:58:36.603Z,82.49
2022-08-26T21:01:07.461Z,82.45
2022-08-26T21:03:34.743Z,83.08
2022-08-26T21:06:01.264Z,82.92
2022-08-26T21:08:27.703Z,82.64
2022-08-26T21:10:54.145Z,82.65
2022-08-26T21:13:20.569Z,82.03
2022-08-26T21:15:47.049Z,81.52
2022-08-26T21:18:13.513Z,81.45
2022-08-26T21:20:40.021Z,81.42
2022-08-26T21:23:06.445Z,81.23
2022-08-26T21:25:32.921Z,81.70
2022-08-26T21:27:59.370Z,81.40
2022-08-26T21:30:25.849Z,81.50
2022-08-26T21:32:52.299Z,81.32
2022-08-26T21:35:18.761Z,81.34
2022-08-26T21:37:45.240Z,81.32
2022-08-26T21:40:11.922Z,81.05
2022-08-26T21:42:38.688Z,81.21
2022-08-26T21:45:06.180Z,81.65
2022-08-26T21:47:32.640Z,81.58
2022-08-26T21:49:59.367Z,81.81
2022-08-26T21:52:26.356Z,81.70
2022-08-26T21:54:57.351Z,81.79
2022-08-26T21:57:24.012Z,81.64
2022-08-26T21:59:50.501Z,81.49
2022-08-26T22:02:17.026Z,81.53
2022-08-26T22:04:48.604Z,81.37
2022-08-26T22:07:17.203Z,81.16
2022-08-26T22:09:44.514Z,81.23
2022-08-26T22:12:11.526Z,80.81
2022-08-26T22:14:39.014Z,79.96
2022-08-26T22:17:05.973Z,79.45
2022-08-26T22:19:32.414Z,79.28
2022-08-26T22:22:00.889Z,78.83
2022-08-26T22:24:27.512Z,78.20
2022-08-26T22:26:54.938Z,77.44
2022-08-26T22:29:21.869Z,77.17
2022-08-26T22:31:48.373Z,76.46
2022-08-26T22:34:17.178Z,76.65
2022-08-26T22:36:45.858Z,76.28
2022-08-26T22:39:14.481Z,75.39
2022-08-26T22:41:42.997Z,75.51
2022-08-26T22:44:10.468Z,75.56
2022-08-26T22:46:38.569Z,76.13
2022-08-26T22:49:05.135Z,76.57
2022-08-26T22:51:31.923Z,77.11
2022-08-26T22:53:58.412Z,78.05
2022-08-26T22:56:24.852Z,78.91
2022-08-26T22:58:51.320Z,79.54
2022-08-26T23:01:17.924Z,79.52
2022-08-26T23:03:45.137Z,80.09
2022-08-26T23:06:11.684Z,80.36
2022-08-26T23:08:39.244Z,80.63
2022-08-26T23:11:09.996Z,81.05
2022-08-26T23:13:37.047Z,81.22
2022-08-26T23:16:06.183Z,81.24
2022-08-26T23:18:32.837Z,81.04
2022-08-26T23:20:59.325Z,80.98
2022-08-26T23:23:27.350Z,80.65
2022-08-26T23:25:55.069Z,80.64
2022-08-26T23:28:22.383Z,80.61
2022-08-26T23:30:48.884Z,80.35
2022-08-26T23:33:15.483Z,79.90
2022-08-26T23:35:42.142Z,79.53
2022-08-26T23:38:09.888Z,79.09
2022-08-26T23:40:38.789Z,79.08
2022-08-26T23:43:07.368Z,78.61
2022-08-26T23:45:34.779Z,78.67
2022-08-26T23:48:01.482Z,78.11
2022-08-26T23:50:48.528Z,77.93
2022-08-26T23:53:21.589Z,77.52
2022-08-26T23:55:50.590Z,77.18
2022-08-26T23:58:18.790Z,76.84
